createdAt,value
2022-09-29T00:01:38.324Z,81.85
2022-09-29T00:04:07.820Z,81.65
2022-09-29T00:06:37.047Z,81.55
2022-09-29T00:09:11.390Z,81.22
2022-09-29T00:11:48.668Z,79.83
2022-09-29T00:14:18.153Z,80.67
2022-09-29T00:16:48.350Z,80.53
2022-09-29T00:19:17.843Z,80.04
2022-09-29T00:21:52.048Z,80.40
2022-09-29T00:24:21.236Z,79.95
2022-09-29T00:26:52.191Z,80.32
2022-09-29T00:29:21.400Z,80.74
2022-09-29T00:31:50.853Z,81.01
2022-09-29T00:34:24.985Z,81.57
2022-09-29T00:36:54.034Z,82.34
2022-09-29T00:39:31.396Z,82.39
2022-09-29T00:42:02.486Z,82.31
2022-09-29T00:45:00.585Z,82.28
2022-09-29T00:47:31.767Z,82.32
2022-09-29T00:50:09.867Z,82.01
2022-09-29T00:52:46.418Z,82.40
2022-09-29T00:55:20.097Z,82.04
2022-09-29T00:57:56.637Z,82.17
2022-09-29T01:00:25.953Z,82.01
2022-09-29T01:02:59.243Z,82.31
2022-09-29T01:05:40.080Z,82.10
2022-09-29T01:08:16.578Z,82.23
2022-09-29T01:10:51.864Z,82.56
2022-09-29T01:13:24.174Z,82.50
2022-09-29T01:15:53.387Z,82.21
2022-09-29T01:18:22.624Z,82.39
2022-09-29T01:20:58.479Z,82.41
2022-09-29T01:23:50.573Z,82.74
2022-09-29T01:26:53.382Z,82.55
2022-09-29T01:29:50.349Z,82.34
2022-09-29T01:32:31.163Z,82.56
2022-09-29T01:35:09.246Z,82.50
2022-09-29T01:37:55.568Z,82.57
2022-09-29T01:40:32.393Z,82.90
2022-09-29T01:43:07.513Z,83.28
2022-09-29T01:45:49.833Z,83.51
2022-09-29T01:48:26.272Z,83.53
2022-09-29T01:51:11.837Z,83.88
2022-09-29T01:53:52.620Z,84.16
2022-09-29T01:56:27.976Z,84.44
2022-09-29T01:59:03.102Z,84.71
2022-09-29T02:01:39.012Z,85.04
2022-09-29T02:04:17.165Z,85.51
2022-09-29T02:06:51.750Z,85.85
2022-09-29T02:12:17.963Z,85.66
2022-09-29T02:14:53.213Z,85.51
2022-09-29T02:17:26.003Z,85.02
2022-09-29T02:19:57.527Z,84.97
2022-09-29T02:22:27.167Z,85.08
2022-09-29T02:25:04.505Z,85.00
2022-09-29T02:27:35.046Z,85.12
2022-09-29T02:30:06.002Z,85.23
2022-09-29T02:32:36.897Z,84.90
2022-09-29T02:35:16.366Z,84.91
2022-09-29T02:37:55.429Z,84.86
2022-09-29T02:43:37.994Z,85.01
2022-09-29T02:46:21.224Z,85.05
2022-09-29T02:49:28.254Z,85.27
2022-09-29T02:52:07.831Z,85.32
2022-09-29T02:54:55.574Z,85.65
2022-09-29T02:57:33.593Z,86.30
2022-09-29T03:00:11.587Z,86.40
2022-09-29T03:02:46.688Z,87.49
2022-09-29T03:05:26.316Z,87.19
2022-09-29T03:07:57.469Z,87.26
2022-09-29T03:10:30.036Z,87.17
2022-09-29T03:12:59.615Z,87.71
2022-09-29T03:15:28.714Z,87.32
2022-09-29T03:17:59.662Z,87.97
2022-09-29T03:20:28.714Z,87.89
2022-09-29T03:23:05.158Z,88.36
2022-09-29T03:25:34.426Z,88.09
2022-09-29T03:28:03.986Z,88.91
2022-09-29T03:30:33.170Z,88.90
2022-09-29T03:33:03.001Z,89.14
2022-09-29T03:35:32.329Z,89.02
2022-09-29T03:38:02.262Z,89.53
2022-09-29T03:40:33.469Z,89.08
2022-09-29T03:43:02.675Z,89.34
2022-09-29T03:45:31.736Z,88.83
2022-09-29T03:48:11.502Z,88.61
2022-09-29T03:50:40.677Z,88.18
2022-09-29T03:53:09.808Z,88.11
2022-09-29T03:55:41.124Z,88.31
2022-09-29T03:58:10.220Z,88.33
2022-09-29T04:00:39.372Z,88.64
2022-09-29T04:03:08.819Z,88.72
2022-09-29T04:05:38.567Z,88.99
2022-09-29T04:08:08.010Z,89.04
2022-09-29T04:10:42.760Z,89.38
2022-09-29T04:13:16.607Z,89.22
2022-09-29T04:16:00.614Z,89.12
2022-09-29T04:18:31.095Z,89.34
2022-09-29T04:21:06.474Z,89.28
2022-09-29T04:23:41.345Z,88.87
2022-09-29T04:26:10.923Z,89.32
2022-09-29T04:28:42.029Z,89.35
2022-09-29T04:31:11.698Z,89.27
2022-09-29T04:33:41.196Z,88.66
2022-09-29T04:36:10.424Z,88.68
2022-09-29T04:38:39.547Z,88.55
2022-09-29T04:41:08.747Z,88.03
2022-09-29T04:43:38.165Z,88.24
2022-09-29T04:46:12.134Z,87.96
2022-09-29T04:48:47.176Z,87.44
2022-09-29T04:51:16.252Z,87.37
2022-09-29T04:53:45.535Z,86.99
2022-09-29T04:56:14.560Z,86.73
2022-09-29T04:58:43.722Z,86.09
2022-09-29T05:01:14.777Z,85.84
2022-09-29T05:03:48.931Z,85.08
2022-09-29T05:06:18.122Z,85.49
2022-09-29T05:08:47.279Z,85.00
2022-09-29T05:11:16.571Z,85.08
2022-09-29T05:13:45.701Z,84.87
2022-09-29T05:16:21.878Z,83.85
2022-09-29T05:18:51.985Z,84.32
2022-09-29T05:21:28.137Z,84.00
2022-09-29T05:23:59.098Z,83.92
2022-09-29T05:26:28.401Z,83.87
2022-09-29T05:28:57.853Z,83.55
2022-09-29T05:31:34.490Z,83.43
2022-09-29T05:34:03.773Z,83.50
2022-09-29T05:36:33.004Z,83.39
2022-09-29T05:39:02.181Z,82.50
2022-09-29T05:41:31.223Z,81.88
2022-09-29T05:44:00.864Z,81.37
2022-09-29T05:46:30.437Z,81.66
2022-09-29T05:49:01.670Z,81.14
2022-09-29T05:51:30.968Z,81.32
2022-09-29T05:54:00.306Z,82.15
2022-09-29T05:59:11.499Z,81.83
2022-09-29T06:01:45.989Z,81.56
2022-09-29T06:04:17.564Z,81.47
2022-09-29T06:06:47.815Z,82.13
2022-09-29T06:09:17.933Z,82.12
2022-09-29T06:11:47.304Z,82.08
2022-09-29T06:14:21.716Z,81.60
2022-09-29T06:16:55.878Z,80.62
2022-09-29T06:19:27.091Z,80.19
2022-09-29T06:21:56.260Z,80.44
2022-09-29T06:24:25.487Z,80.55
2022-09-29T06:26:54.675Z,80.66
2022-09-29T06:29:23.769Z,80.63
2022-09-29T06:31:53.166Z,81.17
2022-09-29T06:34:22.258Z,80.83
2022-09-29T06:37:12.668Z,81.64
2022-09-29T06:39:41.838Z,82.27
2022-09-29T06:42:12.125Z,82.28
2022-09-29T06:44:51.238Z,82.75
2022-09-29T06:47:20.736Z,82.94
2022-09-29T06:49:54.848Z,83.38
2022-09-29T06:52:30.140Z,83.67
2022-09-29T06:54:59.487Z,83.63
2022-09-29T06:57:28.537Z,83.49
2022-09-29T06:59:58.045Z,83.19
2022-09-29T07:02:27.164Z,82.63
2022-09-29T07:04:56.319Z,82.27
2022-09-29T07:07:25.374Z,81.52
2022-09-29T07:09:56.461Z,80.57
2022-09-29T07:12:26.109Z,80.39
2022-09-29T07:14:55.191Z,79.84
2022-09-29T07:17:24.358Z,79.14
2022-09-29T07:20:00.850Z,78.82
2022-09-29T07:22:32.788Z,78.77
2022-09-29T07:25:33.864Z,78.54
2022-09-29T07:28:05.901Z,78.78
2022-09-29T07:30:40.435Z,78.43
2022-09-29T07:33:16.503Z,77.54
2022-09-29T07:35:45.838Z,77.66
2022-09-29T07:38:14.822Z,78.07
2022-09-29T07:40:52.863Z,78.40
2022-09-29T07:43:27.063Z,77.61
2022-09-29T07:45:57.144Z,78.33
2022-09-29T07:48:31.184Z,78.19
2022-09-29T07:51:05.319Z,78.04
2022-09-29T07:53:39.915Z,78.04
2022-09-29T07:56:14.878Z,77.98
2022-09-29T07:58:44.272Z,78.63
2022-09-29T08:01:15.521Z,78.26
2022-09-29T08:03:47.311Z,77.56
2022-09-29T08:06:21.627Z,77.75
2022-09-29T08:09:02.379Z,77.98
2022-09-29T08:11:49.643Z,77.61
2022-09-29T08:14:29.180Z,78.02
2022-09-29T08:16:59.375Z,78.00
2022-09-29T08:19:28.931Z,77.94
2022-09-29T08:21:58.033Z,77.17
2022-09-29T08:24:27.879Z,76.87
2022-09-29T08:27:02.921Z,76.02
2022-09-29T08:29:49.158Z,76.21
2022-09-29T08:32:18.477Z,76.03
2022-09-29T08:34:52.838Z,75.53
2022-09-29T08:37:22.923Z,75.75
2022-09-29T08:39:51.926Z,75.64
2022-09-29T08:42:43.010Z,75.88
2022-09-29T08:45:29.611Z,75.98
2022-09-29T08:48:18.002Z,74.49
2022-09-29T08:50:55.861Z,73.62
2022-09-29T08:53:29.267Z,73.91
2022-09-29T08:56:02.032Z,73.38
2022-09-29T08:58:34.520Z,73.82
2022-09-29T09:01:19.055Z,75.64
2022-09-29T09:04:11.884Z,76.46
2022-09-29T09:06:56.916Z,77.05
2022-09-29T09:09:47.448Z,77.33
2022-09-29T09:12:48.487Z,77.68
2022-09-29T09:15:32.646Z,77.42
2022-09-29T09:18:22.128Z,75.09
2022-09-29T09:21:01.481Z,73.72
2022-09-29T09:23:38.164Z,73.10
2022-09-29T09:26:14.145Z,73.28
2022-09-29T09:28:54.409Z,74.33
2022-09-29T09:31:29.996Z,76.16
2022-09-29T09:34:06.950Z,77.80
2022-09-29T09:36:39.701Z,78.88
2022-09-29T09:39:16.033Z,79.86
2022-09-29T09:41:56.084Z,80.93
2022-09-29T09:44:32.802Z,81.02
2022-09-29T09:50:06.324Z,81.66
2022-09-29T09:52:41.873Z,81.51
2022-09-29T09:55:17.719Z,81.78
2022-09-29T09:57:55.945Z,82.18
2022-09-29T10:00:30.064Z,81.74
2022-09-29T10:03:07.631Z,82.21
2022-09-29T10:05:39.214Z,81.11
2022-09-29T10:08:12.450Z,81.18
2022-09-29T10:10:57.662Z,80.70
2022-09-29T10:13:34.175Z,80.73
2022-09-29T10:16:14.115Z,80.49
2022-09-29T10:18:48.269Z,79.86
2022-09-29T10:21:25.136Z,79.11
2022-09-29T10:23:55.185Z,78.58
2022-09-29T10:26:26.546Z,79.96
2022-09-29T10:29:00.065Z,80.24
2022-09-29T10:31:32.102Z,80.68
2022-09-29T10:34:15.369Z,81.03
2022-09-29T10:36:53.789Z,80.93
2022-09-29T10:39:35.300Z,81.06
2022-09-29T10:45:12.927Z,81.00
2022-09-29T10:47:49.466Z,81.83
2022-09-29T10:50:24.305Z,82.41
2022-09-29T10:52:56.295Z,82.41
2022-09-29T10:55:28.080Z,82.30
2022-09-29T10:57:58.824Z,81.96
2022-09-29T11:00:31.508Z,81.29
2022-09-29T11:03:09.535Z,82.28
2022-09-29T11:05:41.192Z,82.23
2022-09-29T11:08:20.383Z,81.77
2022-09-29T11:11:05.853Z,82.47
2022-09-29T11:13:41.010Z,82.42
2022-09-29T11:16:18.251Z,81.87
2022-09-29T11:18:50.741Z,82.09
2022-09-29T11:21:55.816Z,81.38
2022-09-29T11:24:38.347Z,80.72
2022-09-29T11:27:24.683Z,80.34
2022-09-29T11:30:05.516Z,79.62
2022-09-29T11:32:54.286Z,79.31
2022-09-29T11:38:44.046Z,79.11
2022-09-29T11:41:46.665Z,79.75
2022-09-29T11:44:35.962Z,80.00
2022-09-29T11:47:15.692Z,79.39
2022-09-29T11:50:03.271Z,78.38
2022-09-29T11:52:52.413Z,77.15
2022-09-29T11:55:36.752Z,76.64
2022-09-29T11:58:22.518Z,76.22
2022-09-29T12:01:06.397Z,76.13
2022-09-29T12:03:43.309Z,76.41
2022-09-29T12:06:59.784Z,76.74
2022-09-29T12:09:58.831Z,77.89
2022-09-29T12:12:42.441Z,78.11
2022-09-29T12:15:29.045Z,77.61
2022-09-29T12:18:03.090Z,77.60
2022-09-29T12:20:36.283Z,77.32
2022-09-29T12:23:11.553Z,77.75
2022-09-29T12:25:44.258Z,78.67
2022-09-29T12:28:26.935Z,79.70
2022-09-29T12:31:01.432Z,80.10
2022-09-29T12:33:44.859Z,80.40
2022-09-29T12:36:50.371Z,80.97
2022-09-29T12:39:42.907Z,80.17
2022-09-29T12:42:26.373Z,78.51
2022-09-29T12:45:11.042Z,78.11
2022-09-29T12:48:01.889Z,78.14
2022-09-29T12:56:55.856Z,77.13
2022-09-29T12:59:36.957Z,78.12
2022-09-29T13:02:47.537Z,77.78
2022-09-29T13:05:52.476Z,78.07
2022-09-29T13:11:50.837Z,77.07
2022-09-29T13:14:37.031Z,76.57
2022-09-29T13:17:19.479Z,77.07
2022-09-29T13:20:20.979Z,77.37
2022-09-29T13:23:31.951Z,77.49
2022-09-29T13:26:21.216Z,77.17
2022-09-29T13:28:58.631Z,78.06
2022-09-29T13:31:37.037Z,77.91
2022-09-29T13:34:07.721Z,78.43
2022-09-29T13:36:43.771Z,79.13
2022-09-29T13:39:25.009Z,79.25
2022-09-29T13:41:59.514Z,78.57
2022-09-29T13:44:31.660Z,78.84
2022-09-29T13:47:38.758Z,78.92
2022-09-29T13:50:41.067Z,79.58
2022-09-29T13:53:30.846Z,79.22
2022-09-29T13:56:24.106Z,78.88
2022-09-29T13:59:02.900Z,79.14
2022-09-29T14:01:38.105Z,79.39
2022-09-29T14:04:43.328Z,79.58
2022-09-29T14:07:38.746Z,80.10
2022-09-29T14:10:22.004Z,80.69
2022-09-29T14:12:59.151Z,80.43
2022-09-29T14:15:39.724Z,80.90
2022-09-29T14:18:22.332Z,80.24
2022-09-29T14:21:03.573Z,81.04
2022-09-29T14:23:54.884Z,81.52
2022-09-29T14:26:46.083Z,82.63
2022-09-29T14:29:25.699Z,82.47
2022-09-29T14:31:58.371Z,82.20
2022-09-29T14:34:32.765Z,82.90
2022-09-29T14:37:04.421Z,83.00
2022-09-29T14:39:34.355Z,83.56
2022-09-29T14:42:10.575Z,83.85
2022-09-29T14:44:53.155Z,84.05
2022-09-29T14:47:57.905Z,85.30
2022-09-29T14:50:56.950Z,86.13
2022-09-29T14:53:56.909Z,88.17
2022-09-29T14:56:44.969Z,88.47
2022-09-29T14:59:29.957Z,90.08
2022-09-29T15:02:18.424Z,90.65
2022-09-29T15:04:48.785Z,90.54
2022-09-29T15:07:23.028Z,91.99
2022-09-29T15:09:54.428Z,92.22
2022-09-29T15:12:27.342Z,93.35
2022-09-29T15:14:58.751Z,93.95
2022-09-29T15:17:50.275Z,95.51
2022-09-29T15:20:28.585Z,95.48
2022-09-29T15:23:15.054Z,96.90
2022-09-29T15:25:47.867Z,96.24
2022-09-29T15:28:22.179Z,97.06
2022-09-29T15:30:54.364Z,97.87
2022-09-29T15:33:27.402Z,98.70
2022-09-29T15:36:01.265Z,99.41
2022-09-29T15:38:38.050Z,100.00
2022-09-29T15:41:18.127Z,100.00
2022-09-29T15:43:56.844Z,100.00
2022-09-29T15:46:28.387Z,100.00
2022-09-29T15:49:15.891Z,100.00
2022-09-29T15:51:57.972Z,100.00
2022-09-29T15:54:33.114Z,100.00
2022-09-29T15:57:15.451Z,100.00
2022-09-29T15:59:54.336Z,100.00
2022-09-29T16:02:34.706Z,100.00
2022-09-29T16:05:07.998Z,100.00
2022-09-29T16:07:40.758Z,100.00
2022-09-29T16:10:17.420Z,100.00
2022-09-29T16:12:55.097Z,100.00
2022-09-29T16:15:30.404Z,100.00
2022-09-29T16:18:01.490Z,100.00
2022-09-29T16:20:36.821Z,100.00
2022-09-29T16:23:21.448Z,100.00
2022-09-29T16:26:13.875Z,100.00
2022-09-29T16:29:02.630Z,100.00
2022-09-29T16:31:39.176Z,100.00
2022-09-29T16:34:24.947Z,100.00
2022-09-29T16:36:55.285Z,100.00
2022-09-29T16:39:26.728Z,100.00
2022-09-29T16:42:00.549Z,100.00
2022-09-29T16:44:32.608Z,100.00
2022-09-29T16:47:04.390Z,100.00
2022-09-29T16:49:46.537Z,100.00
2022-09-29T16:52:19.891Z,100.00
2022-09-29T16:54:51.842Z,100.00
2022-09-29T16:57:29.843Z,100.00
2022-09-29T17:00:05.884Z,100.00
2022-09-29T17:02:35.466Z,100.00
2022-09-29T17:05:07.117Z,100.00
2022-09-29T17:07:42.978Z,100.00
2022-09-29T17:10:18.514Z,100.00
2022-09-29T17:12:58.894Z,100.00
2022-09-29T17:15:29.899Z,100.00
2022-09-29T17:17:59.023Z,100.00
2022-09-29T17:20:31.088Z,100.00
2022-09-29T17:23:01.002Z,100.00
2022-09-29T17:25:30.578Z,100.00
2022-09-29T17:28:12.085Z,100.00
2022-09-29T17:30:42.774Z,100.00
2022-09-29T17:33:19.806Z,100.00
2022-09-29T17:35:55.251Z,100.00
2022-09-29T17:38:31.763Z,100.00
2022-09-29T17:41:04.000Z,100.00
2022-09-29T17:43:35.312Z,100.00
2022-09-29T17:46:05.164Z,100.00
2022-09-29T17:48:34.706Z,100.00
2022-09-29T17:51:17.758Z,100.00
2022-09-29T17:53:48.714Z,100.00
2022-09-29T17:56:25.313Z,100.00
2022-09-29T17:58:57.212Z,100.00
2022-09-29T18:01:29.970Z,100.00
2022-09-29T18:04:05.213Z,100.00
2022-09-29T18:06:37.183Z,100.00
2022-09-29T18:09:16.442Z,100.00
2022-09-29T18:11:47.642Z,100.00
2022-09-29T18:14:19.137Z,100.00
2022-09-29T18:16:49.103Z,100.00
2022-09-29T18:19:19.477Z,100.00
2022-09-29T18:21:49.205Z,100.00
2022-09-29T18:24:18.722Z,100.00
2022-09-29T18:26:53.233Z,100.00
2022-09-29T18:29:24.515Z,100.00
2022-09-29T18:31:53.906Z,100.00
2022-09-29T18:34:30.669Z,100.00
2022-09-29T18:37:05.123Z,100.00
2022-09-29T18:39:34.485Z,100.00
2022-09-29T18:42:03.767Z,100.00
2022-09-29T18:44:41.712Z,100.00
2022-09-29T18:47:12.468Z,100.00
2022-09-29T18:49:41.652Z,100.00
2022-09-29T18:52:10.837Z,100.00
2022-09-29T18:54:40.085Z,100.00
2022-09-29T18:57:13.876Z,100.00
2022-09-29T18:59:46.951Z,100.00
2022-09-29T19:02:22.341Z,100.00
2022-09-29T19:04:53.886Z,100.00
2022-09-29T19:07:28.709Z,100.00
2022-09-29T19:09:57.742Z,100.00
2022-09-29T19:12:29.539Z,100.00
2022-09-29T19:15:00.995Z,100.00
2022-09-29T19:17:35.768Z,100.00
2022-09-29T19:20:06.192Z,100.00
2022-09-29T19:22:38.356Z,100.00
2022-09-29T19:25:08.806Z,100.00
2022-09-29T19:27:43.882Z,100.00
2022-09-29T19:30:17.275Z,100.00
2022-09-29T19:32:52.167Z,100.00
2022-09-29T19:35:24.005Z,100.00
2022-09-29T19:37:53.667Z,100.00
2022-09-29T19:40:26.193Z,100.00
2022-09-29T19:42:58.054Z,100.00
2022-09-29T19:45:29.223Z,100.00
2022-09-29T19:48:03.847Z,100.00
2022-09-29T19:50:45.901Z,100.00
2022-09-29T19:53:20.224Z,100.00
2022-09-29T19:55:50.435Z,100.00
2022-09-29T19:58:24.892Z,100.00
2022-09-29T20:00:59.654Z,100.00
2022-09-29T20:03:33.984Z,100.00
2022-09-29T20:06:04.408Z,100.00
2022-09-29T20:08:33.753Z,100.00
2022-09-29T20:11:10.649Z,100.00
2022-09-29T20:13:40.477Z,100.00
2022-09-29T20:16:11.867Z,100.00
2022-09-29T20:18:43.480Z,100.00
2022-09-29T20:21:19.797Z,100.00
2022-09-29T20:23:49.094Z,100.00
2022-09-29T20:26:18.017Z,100.00
2022-09-29T20:28:52.457Z,100.00
2022-09-29T20:31:24.781Z,100.00
2022-09-29T20:33:54.408Z,100.00
2022-09-29T20:36:23.610Z,100.00
2022-09-29T20:38:52.955Z,100.00
2022-09-29T20:41:22.023Z,100.00
2022-09-29T20:43:55.255Z,100.00
2022-09-29T20:46:27.819Z,100.00
2022-09-29T20:48:59.039Z,100.00
2022-09-29T20:51:29.079Z,100.00
2022-09-29T20:54:03.730Z,100.00
2022-09-29T20:56:39.809Z,100.00
2022-09-29T20:59:11.654Z,100.00
2022-09-29T21:01:42.895Z,100.00
2022-09-29T21:04:19.782Z,100.00
2022-09-29T21:06:51.655Z,100.00
2022-09-29T21:09:22.937Z,100.00
2022-09-29T21:11:53.179Z,100.00
2022-09-29T21:14:27.256Z,100.00
2022-09-29T21:26:04.518Z,100.00
2022-09-29T21:31:50.405Z,100.00
2022-09-29T21:34:32.598Z,100.00
2022-09-29T21:40:00.852Z,100.00
2022-09-29T21:42:34.748Z,100.00
2022-09-29T21:51:08.838Z,100.00
2022-09-29T21:53:46.789Z,100.00
2022-09-29T21:56:22.734Z,100.00
2022-09-29T21:59:15.127Z,100.00
2022-09-29T22:02:03.548Z,100.00
2022-09-29T22:04:48.818Z,100.00
2022-09-29T22:07:21.106Z,100.00
2022-09-29T22:09:52.686Z,100.00
2022-09-29T22:15:14.036Z,100.00
2022-09-29T22:17:49.121Z,100.00
2022-09-29T22:20:19.167Z,100.00
2022-09-29T22:23:11.417Z,100.00
2022-09-29T22:28:45.909Z,100.00
2022-09-29T22:31:34.918Z,100.00
2022-09-29T22:34:51.440Z,100.00
2022-09-29T22:38:00.351Z,100.00
2022-09-29T22:40:40.650Z,100.00
2022-09-29T22:43:26.003Z,100.00
2022-09-29T22:46:27.858Z,100.00
2022-09-29T22:48:57.581Z,100.00
2022-09-29T22:51:55.444Z,100.00
2022-09-29T22:54:25.658Z,100.00
2022-09-29T22:57:21.214Z,100.00
2022-09-29T23:00:02.611Z,100.00
2022-09-29T23:02:57.594Z,100.00
2022-09-29T23:08:29.941Z,100.00
2022-09-29T23:11:08.700Z,100.00
2022-09-29T23:13:50.865Z,100.00
2022-09-29T23:16:25.758Z,100.00
2022-09-29T23:19:37.709Z,100.00
2022-09-29T23:22:10.841Z,100.00
2022-09-29T23:24:46.278Z,100.00
2022-09-29T23:27:15.917Z,100.00
2022-09-29T23:29:47.060Z,100.00
2022-09-29T23:32:18.204Z,100.00
2022-09-29T23:35:06.135Z,100.00
2022-09-29T23:40:38.181Z,100.00
2022-09-29T23:43:11.442Z,100.00
2022-09-29T23:45:47.637Z,100.00
2022-09-29T23:48:16.993Z,100.00
2022-09-29T23:50:46.950Z,100.00
2022-09-29T23:53:16.534Z,100.00
2022-09-29T23:55:45.937Z,100.00
2022-09-29T23:58:15.017Z,100.00
